Terminal Aerodrome Forecast
Issued by NWS Jacksonville, FL

Home | Current Version | Previous Version | Text Only | Print | Product List | Glossary On
Versions: 1 2 3 4 5 6 7 8 9 10 11 12 13 14 15 16 17 18 19 20 21 22 23 24 25
000
FTUS42 KJAX 231849 AAA
TAFGNV
TAF AMD
KGNV 231849Z 2319/2418 27015G25KT P6SM BKN035
     FM232300 27012G23KT P6SM SCT030
     FM240300 28011G20KT P6SM SKC
     FM241200 30009G15KT P6SM SKC=

USA.gov is the U.S. government's official web portal to all federal, state and local government web resources and services.